sensor_id;sensor_type;location;lat;lon;timestamp;P1;durP1;ratioP1;P2;durP2;ratioP2
3891;SDS011;1961;48.194;16.370;2023-08-17T00:00:39;48.40;;;12.57;;
3891;SDS011;1961;48.194;16.370;2023-08-17T00:03:05;48.83;;;13.87;;
3891;SDS011;1961;48.194;16.370;2023-08-17T00:05:31;47.37;;;12.87;;
3891;SDS011;1961;48.194;16.370;2023-08-17T00:08:00;49.13;;;13.40;;
3891;SDS011;1961;48.194;16.370;2023-08-17T00:10:27;51.50;;;14.23;;
3891;SDS011;1961;48.194;16.370;2023-08-17T00:12:54;49.33;;;12.63;;
3891;SDS011;1961;48.194;16.370;2023-08-17T00:15:20;47.53;;;12.83;;
3891;SDS011;1961;48.194;16.370;2023-08-17T00:17:46;51.00;;;13.20;;
3891;SDS011;1961;48.194;16.370;2023-08-17T00:20:12;48.60;;;12.77;;
3891;SDS011;1961;48.194;16.370;2023-08-17T00:22:39;48.87;;;13.90;;
3891;SDS011;1961;48.194;16.370;2023-08-17T00:25:06;48.87;;;13.53;;
3891;SDS011;1961;48.194;16.370;2023-08-17T00:27:33;48.60;;;13.87;;
3891;SDS011;1961;48.194;16.370;2023-08-17T00:29:59;48.20;;;13.10;;
3891;SDS011;1961;48.194;16.370;2023-08-17T00:32:25;49.77;;;13.33;;
3891;SDS011;1961;48.194;16.370;2023-08-17T00:34:51;47.57;;;13.30;;
3891;SDS011;1961;48.194;16.370;2023-08-17T00:37:17;49.70;;;14.70;;
3891;SDS011;1961;48.194;16.370;2023-08-17T00:39:44;49.77;;;14.30;;
3891;SDS011;1961;48.194;16.370;2023-08-17T00:42:10;48.27;;;13.80;;
3891;SDS011;1961;48.194;16.370;2023-08-17T00:44:36;48.43;;;12.97;;
3891;SDS011;1961;48.194;16.370;2023-08-17T00:47:02;50.17;;;15.00;;
3891;SDS011;1961;48.194;16.370;2023-08-17T00:49:29;49.47;;;14.40;;
3891;SDS011;1961;48.194;16.370;2023-08-17T00:51:56;49.73;;;16.10;;
3891;SDS011;1961;48.194;16.370;2023-08-17T00:54:26;50.90;;;15.80;;
3891;SDS011;1961;48.194;16.370;2023-08-17T00:56:53;52.27;;;16.27;;
3891;SDS011;1961;48.194;16.370;2023-08-17T00:59:20;51.53;;;16.93;;
3891;SDS011;1961;48.194;16.370;2023-08-17T01:01:46;52.33;;;17.17;;
3891;SDS011;1961;48.194;16.370;2023-08-17T01:04:13;51.50;;;15.80;;
3891;SDS011;1961;48.194;16.370;2023-08-17T01:06:39;50.63;;;15.97;;
3891;SDS011;1961;48.194;16.370;2023-08-17T01:09:05;53.47;;;17.63;;
3891;SDS011;1961;48.194;16.370;2023-08-17T01:11:44;51.67;;;15.70;;
3891;SDS011;1961;48.194;16.370;2023-08-17T01:16:56;51.27;;;17.07;;
3891;SDS011;1961;48.194;16.370;2023-08-17T01:19:28;50.00;;;16.30;;
3891;SDS011;1961;48.194;16.370;2023-08-17T01:21:56;52.43;;;16.50;;
3891;SDS011;1961;48.194;16.370;2023-08-17T01:24:23;52.37;;;17.20;;
3891;SDS011;1961;48.194;16.370;2023-08-17T01:26:49;52.70;;;17.40;;
3891;SDS011;1961;48.194;16.370;2023-08-17T01:29:15;52.60;;;17.93;;
3891;SDS011;1961;48.194;16.370;2023-08-17T01:31:47;50.87;;;16.87;;
3891;SDS011;1961;48.194;16.370;2023-08-17T01:34:18;55.50;;;16.63;;
3891;SDS011;1961;48.194;16.370;2023-08-17T01:36:50;52.50;;;17.57;;
3891;SDS011;1961;48.194;16.370;2023-08-17T01:39:16;55.77;;;17.50;;
3891;SDS011;1961;48.194;16.370;2023-08-17T01:41:43;55.47;;;16.13;;
3891;SDS011;1961;48.194;16.370;2023-08-17T01:44:11;51.37;;;16.20;;
3891;SDS011;1961;48.194;16.370;2023-08-17T01:46:38;51.60;;;16.43;;
3891;SDS011;1961;48.194;16.370;2023-08-17T01:49:04;53.50;;;15.73;;
3891;SDS011;1961;48.194;16.370;2023-08-17T01:51:31;51.63;;;16.90;;
3891;SDS011;1961;48.194;16.370;2023-08-17T01:53:57;51.70;;;17.17;;
3891;SDS011;1961;48.194;16.370;2023-08-17T01:56:23;51.47;;;16.87;;
3891;SDS011;1961;48.194;16.370;2023-08-17T01:58:49;52.67;;;16.00;;
3891;SDS011;1961;48.194;16.370;2023-08-17T02:01:16;51.27;;;16.87;;
3891;SDS011;1961;48.194;16.370;2023-08-17T02:03:42;53.83;;;16.50;;
3891;SDS011;1961;48.194;16.370;2023-08-17T02:06:08;52.63;;;17.43;;
3891;SDS011;1961;48.194;16.370;2023-08-17T02:08:36;51.77;;;16.07;;
3891;SDS011;1961;48.194;16.370;2023-08-17T02:11:02;62.10;;;17.93;;
3891;SDS011;1961;48.194;16.370;2023-08-17T02:13:28;56.47;;;16.90;;
3891;SDS011;1961;48.194;16.370;2023-08-17T02:15:55;53.27;;;17.20;;
3891;SDS011;1961;48.194;16.370;2023-08-17T02:18:21;51.00;;;16.63;;
3891;SDS011;1961;48.194;16.370;2023-08-17T02:20:47;52.20;;;18.23;;
3891;SDS011;1961;48.194;16.370;2023-08-17T02:23:13;54.17;;;17.63;;
3891;SDS011;1961;48.194;16.370;2023-08-17T02:25:39;52.33;;;17.30;;
3891;SDS011;1961;48.194;16.370;2023-08-17T02:28:05;52.80;;;16.90;;
3891;SDS011;1961;48.194;16.370;2023-08-17T02:30:32;54.47;;;17.27;;
3891;SDS011;1961;48.194;16.370;2023-08-17T02:32:58;51.43;;;17.13;;
3891;SDS011;1961;48.194;16.370;2023-08-17T02:35:24;51.50;;;15.77;;
3891;SDS011;1961;48.194;16.370;2023-08-17T02:37:50;51.90;;;14.73;;
3891;SDS011;1961;48.194;16.370;2023-08-17T02:40:16;50.50;;;14.50;;
3891;SDS011;1961;48.194;16.370;2023-08-17T02:42:42;48.53;;;14.30;;
3891;SDS011;1961;48.194;16.370;2023-08-17T02:45:09;49.33;;;13.87;;
3891;SDS011;1961;48.194;16.370;2023-08-17T02:47:35;50.00;;;14.80;;
3891;SDS011;1961;48.194;16.370;2023-08-17T02:50:01;48.57;;;14.63;;
3891;SDS011;1961;48.194;16.370;2023-08-17T02:52:28;50.40;;;14.70;;
3891;SDS011;1961;48.194;16.370;2023-08-17T02:54:54;48.27;;;14.53;;
3891;SDS011;1961;48.194;16.370;2023-08-17T02:57:21;51.47;;;14.60;;
3891;SDS011;1961;48.194;16.370;2023-08-17T02:59:47;49.67;;;15.23;;
3891;SDS011;1961;48.194;16.370;2023-08-17T03:02:13;50.67;;;15.20;;
3891;SDS011;1961;48.194;16.370;2023-08-17T03:04:39;49.60;;;14.90;;
3891;SDS011;1961;48.194;16.370;2023-08-17T03:07:07;49.90;;;14.00;;
3891;SDS011;1961;48.194;16.370;2023-08-17T03:09:33;50.67;;;15.00;;
3891;SDS011;1961;48.194;16.370;2023-08-17T03:11:59;49.07;;;15.03;;
3891;SDS011;1961;48.194;16.370;2023-08-17T03:14:25;48.83;;;15.60;;
3891;SDS011;1961;48.194;16.370;2023-08-17T03:16:51;52.43;;;14.77;;
3891;SDS011;1961;48.194;16.370;2023-08-17T03:19:17;49.60;;;15.50;;
3891;SDS011;1961;48.194;16.370;2023-08-17T03:21:43;51.60;;;14.87;;
3891;SDS011;1961;48.194;16.370;2023-08-17T03:24:09;49.60;;;14.50;;
3891;SDS011;1961;48.194;16.370;2023-08-17T03:26:36;50.47;;;15.27;;
3891;SDS011;1961;48.194;16.370;2023-08-17T03:29:02;48.77;;;14.80;;
3891;SDS011;1961;48.194;16.370;2023-08-17T03:31:28;49.73;;;15.63;;
3891;SDS011;1961;48.194;16.370;2023-08-17T03:33:54;50.20;;;15.80;;
3891;SDS011;1961;48.194;16.370;2023-08-17T03:36:20;49.23;;;15.10;;
3891;SDS011;1961;48.194;16.370;2023-08-17T03:38:46;53.10;;;15.47;;
3891;SDS011;1961;48.194;16.370;2023-08-17T03:41:13;50.77;;;15.67;;
3891;SDS011;1961;48.194;16.370;2023-08-17T03:43:39;49.80;;;15.47;;
3891;SDS011;1961;48.194;16.370;2023-08-17T03:46:05;52.57;;;16.00;;
3891;SDS011;1961;48.194;16.370;2023-08-17T03:48:31;52.13;;;15.37;;
3891;SDS011;1961;48.194;16.370;2023-08-17T03:50:57;51.30;;;14.63;;
3891;SDS011;1961;48.194;16.370;2023-08-17T03:53:24;52.23;;;15.70;;
3891;SDS011;1961;48.194;16.370;2023-08-17T03:55:50;50.63;;;15.40;;
3891;SDS011;1961;48.194;16.370;2023-08-17T03:58:17;50.40;;;16.00;;
3891;SDS011;1961;48.194;16.370;2023-08-17T04:00:50;51.57;;;15.93;;
3891;SDS011;1961;48.194;16.370;2023-08-17T04:03:16;51.63;;;15.13;;
3891;SDS011;1961;48.194;16.370;2023-08-17T04:05:43;58.93;;;15.43;;
3891;SDS011;1961;48.194;16.370;2023-08-17T04:08:09;50.20;;;15.43;;
3891;SDS011;1961;48.194;16.370;2023-08-17T04:10:36;51.57;;;15.80;;
3891;SDS011;1961;48.194;16.370;2023-08-17T04:13:02;50.67;;;15.13;;
3891;SDS011;1961;48.194;16.370;2023-08-17T04:15:28;53.23;;;15.30;;
3891;SDS011;1961;48.194;16.370;2023-08-17T04:17:54;50.00;;;16.60;;
3891;SDS011;1961;48.194;16.370;2023-08-17T04:20:20;51.80;;;15.40;;
3891;SDS011;1961;48.194;16.370;2023-08-17T04:22:48;50.83;;;16.37;;
3891;SDS011;1961;48.194;16.370;2023-08-17T04:25:14;51.43;;;16.83;;
3891;SDS011;1961;48.194;16.370;2023-08-17T04:27:41;54.10;;;15.90;;
3891;SDS011;1961;48.194;16.370;2023-08-17T04:30:07;51.77;;;16.00;;
3891;SDS011;1961;48.194;16.370;2023-08-17T04:32:34;52.53;;;17.03;;
3891;SDS011;1961;48.194;16.370;2023-08-17T04:35:00;50.47;;;16.03;;
3891;SDS011;1961;48.194;16.370;2023-08-17T04:37:26;50.80;;;15.53;;
3891;SDS011;1961;48.194;16.370;2023-08-17T04:39:52;50.57;;;16.10;;
3891;SDS011;1961;48.194;16.370;2023-08-17T04:42:18;52.40;;;17.27;;
3891;SDS011;1961;48.194;16.370;2023-08-17T04:44:45;52.40;;;16.63;;
3891;SDS011;1961;48.194;16.370;2023-08-17T04:47:11;50.60;;;15.97;;
3891;SDS011;1961;48.194;16.370;2023-08-17T04:49:38;53.30;;;17.13;;
3891;SDS011;1961;48.194;16.370;2023-08-17T04:52:04;54.80;;;17.60;;
3891;SDS011;1961;48.194;16.370;2023-08-17T04:54:30;57.30;;;21.60;;
3891;SDS011;1961;48.194;16.370;2023-08-17T04:56:56;56.73;;;17.80;;
3891;SDS011;1961;48.194;16.370;2023-08-17T04:59:22;52.10;;;17.60;;
3891;SDS011;1961;48.194;16.370;2023-08-17T05:01:48;51.67;;;17.80;;
3891;SDS011;1961;48.194;16.370;2023-08-17T05:04:15;58.33;;;18.80;;
3891;SDS011;1961;48.194;16.370;2023-08-17T05:06:41;53.57;;;17.90;;
3891;SDS011;1961;48.194;16.370;2023-08-17T05:09:08;53.40;;;18.20;;
3891;SDS011;1961;48.194;16.370;2023-08-17T05:11:34;57.73;;;18.30;;
3891;SDS011;1961;48.194;16.370;2023-08-17T05:14:00;54.53;;;19.43;;
3891;SDS011;1961;48.194;16.370;2023-08-17T05:16:27;53.73;;;17.43;;
3891;SDS011;1961;48.194;16.370;2023-08-17T05:18:53;58.57;;;18.30;;
3891;SDS011;1961;48.194;16.370;2023-08-17T05:21:19;52.97;;;18.90;;
3891;SDS011;1961;48.194;16.370;2023-08-17T05:23:45;54.33;;;17.50;;
3891;SDS011;1961;48.194;16.370;2023-08-17T05:26:11;57.50;;;19.60;;
3891;SDS011;1961;48.194;16.370;2023-08-17T05:28:37;54.00;;;19.20;;
3891;SDS011;1961;48.194;16.370;2023-08-17T05:31:06;54.40;;;18.67;;
3891;SDS011;1961;48.194;16.370;2023-08-17T05:33:32;54.93;;;18.27;;
3891;SDS011;1961;48.194;16.370;2023-08-17T05:35:59;53.30;;;17.70;;
3891;SDS011;1961;48.194;16.370;2023-08-17T05:38:25;60.77;;;22.30;;
3891;SDS011;1961;48.194;16.370;2023-08-17T05:40:57;55.67;;;18.93;;
3891;SDS011;1961;48.194;16.370;2023-08-17T05:43:24;53.70;;;20.00;;
3891;SDS011;1961;48.194;16.370;2023-08-17T05:45:51;57.23;;;19.70;;
3891;SDS011;1961;48.194;16.370;2023-08-17T05:48:20;55.00;;;20.70;;
3891;SDS011;1961;48.194;16.370;2023-08-17T05:50:47;56.07;;;20.13;;
3891;SDS011;1961;48.194;16.370;2023-08-17T05:53:13;56.83;;;20.30;;
3891;SDS011;1961;48.194;16.370;2023-08-17T05:55:40;54.07;;;19.23;;
3891;SDS011;1961;48.194;16.370;2023-08-17T05:58:06;56.80;;;20.07;;
3891;SDS011;1961;48.194;16.370;2023-08-17T06:00:32;58.30;;;20.90;;
3891;SDS011;1961;48.194;16.370;2023-08-17T06:02:58;54.97;;;20.80;;
3891;SDS011;1961;48.194;16.370;2023-08-17T06:05:27;56.67;;;20.73;;
3891;SDS011;1961;48.194;16.370;2023-08-17T06:07:54;57.40;;;19.90;;
3891;SDS011;1961;48.194;16.370;2023-08-17T06:10:21;57.20;;;19.90;;
3891;SDS011;1961;48.194;16.370;2023-08-17T06:12:52;53.30;;;18.37;;
3891;SDS011;1961;48.194;16.370;2023-08-17T06:15:18;58.97;;;20.03;;
3891;SDS011;1961;48.194;16.370;2023-08-17T06:17:44;56.33;;;21.20;;
3891;SDS011;1961;48.194;16.370;2023-08-17T06:20:11;60.30;;;22.00;;
3891;SDS011;1961;48.194;16.370;2023-08-17T06:22:39;51.80;;;16.93;;
3891;SDS011;1961;48.194;16.370;2023-08-17T06:25:06;53.47;;;17.10;;
3891;SDS011;1961;48.194;16.370;2023-08-17T06:27:33;52.40;;;17.43;;
3891;SDS011;1961;48.194;16.370;2023-08-17T06:30:00;52.97;;;17.13;;
3891;SDS011;1961;48.194;16.370;2023-08-17T06:32:26;52.83;;;16.10;;
3891;SDS011;1961;48.194;16.370;2023-08-17T06:34:52;52.33;;;15.93;;
3891;SDS011;1961;48.194;16.370;2023-08-17T06:37:19;52.33;;;15.87;;
3891;SDS011;1961;48.194;16.370;2023-08-17T06:39:45;49.10;;;15.30;;
3891;SDS011;1961;48.194;16.370;2023-08-17T06:42:12;48.60;;;13.93;;
3891;SDS011;1961;48.194;16.370;2023-08-17T06:44:38;50.80;;;14.90;;
3891;SDS011;1961;48.194;16.370;2023-08-17T06:47:04;52.97;;;15.40;;
3891;SDS011;1961;48.194;16.370;2023-08-17T06:49:30;52.20;;;15.43;;
3891;SDS011;1961;48.194;16.370;2023-08-17T06:51:57;49.37;;;14.33;;
3891;SDS011;1961;48.194;16.370;2023-08-17T06:54:23;50.20;;;14.23;;
3891;SDS011;1961;48.194;16.370;2023-08-17T06:56:49;49.30;;;14.40;;
3891;SDS011;1961;48.194;16.370;2023-08-17T06:59:15;49.57;;;14.60;;
3891;SDS011;1961;48.194;16.370;2023-08-17T07:01:42;53.77;;;14.70;;
3891;SDS011;1961;48.194;16.370;2023-08-17T07:04:08;47.70;;;12.83;;
3891;SDS011;1961;48.194;16.370;2023-08-17T07:06:34;50.00;;;13.50;;
3891;SDS011;1961;48.194;16.370;2023-08-17T07:09:00;49.40;;;13.20;;
3891;SDS011;1961;48.194;16.370;2023-08-17T07:11:29;55.37;;;14.33;;
3891;SDS011;1961;48.194;16.370;2023-08-17T07:13:55;47.60;;;13.43;;
3891;SDS011;1961;48.194;16.370;2023-08-17T07:16:22;49.07;;;12.37;;
3891;SDS011;1961;48.194;16.370;2023-08-17T07:18:48;50.23;;;13.57;;
3891;SDS011;1961;48.194;16.370;2023-08-17T07:21:14;49.47;;;13.30;;
3891;SDS011;1961;48.194;16.370;2023-08-17T07:23:43;47.73;;;13.37;;
3891;SDS011;1961;48.194;16.370;2023-08-17T07:26:10;51.17;;;13.53;;
3891;SDS011;1961;48.194;16.370;2023-08-17T07:28:36;47.77;;;12.57;;
3891;SDS011;1961;48.194;16.370;2023-08-17T07:31:02;55.33;;;13.20;;
3891;SDS011;1961;48.194;16.370;2023-08-17T07:33:28;48.03;;;12.63;;
3891;SDS011;1961;48.194;16.370;2023-08-17T07:35:54;49.47;;;13.87;;
3891;SDS011;1961;48.194;16.370;2023-08-17T07:38:23;49.30;;;13.40;;
3891;SDS011;1961;48.194;16.370;2023-08-17T07:40:49;48.83;;;13.87;;
3891;SDS011;1961;48.194;16.370;2023-08-17T07:43:15;50.10;;;13.77;;
3891;SDS011;1961;48.194;16.370;2023-08-17T07:45:41;49.67;;;15.33;;
3891;SDS011;1961;48.194;16.370;2023-08-17T07:48:08;49.70;;;15.10;;
3891;SDS011;1961;48.194;16.370;2023-08-17T07:50:34;48.40;;;14.50;;
3891;SDS011;1961;48.194;16.370;2023-08-17T07:53:00;53.87;;;17.63;;
3891;SDS011;1961;48.194;16.370;2023-08-17T07:55:26;52.70;;;18.13;;
3891;SDS011;1961;48.194;16.370;2023-08-17T07:57:53;56.60;;;18.57;;
3891;SDS011;1961;48.194;16.370;2023-08-17T08:00:19;53.07;;;19.23;;
3891;SDS011;1961;48.194;16.370;2023-08-17T08:02:46;55.17;;;20.00;;
3891;SDS011;1961;48.194;16.370;2023-08-17T08:05:12;54.70;;;19.37;;
3891;SDS011;1961;48.194;16.370;2023-08-17T08:07:39;53.17;;;18.73;;
3891;SDS011;1961;48.194;16.370;2023-08-17T08:10:06;52.90;;;18.63;;
3891;SDS011;1961;48.194;16.370;2023-08-17T08:12:33;51.87;;;16.77;;
3891;SDS011;1961;48.194;16.370;2023-08-17T08:14:59;54.00;;;17.50;;
3891;SDS011;1961;48.194;16.370;2023-08-17T08:17:26;52.67;;;17.80;;
3891;SDS011;1961;48.194;16.370;2023-08-17T08:19:52;58.77;;;19.80;;
3891;SDS011;1961;48.194;16.370;2023-08-17T08:22:19;54.37;;;19.07;;
3891;SDS011;1961;48.194;16.370;2023-08-17T08:24:45;58.40;;;18.50;;
3891;SDS011;1961;48.194;16.370;2023-08-17T08:27:11;55.27;;;17.80;;
3891;SDS011;1961;48.194;16.370;2023-08-17T08:29:37;53.43;;;17.90;;
3891;SDS011;1961;48.194;16.370;2023-08-17T08:32:04;52.33;;;16.60;;
3891;SDS011;1961;48.194;16.370;2023-08-17T08:34:31;52.40;;;16.40;;
3891;SDS011;1961;48.194;16.370;2023-08-17T08:36:57;53.13;;;16.77;;
3891;SDS011;1961;48.194;16.370;2023-08-17T08:39:25;54.73;;;17.97;;
3891;SDS011;1961;48.194;16.370;2023-08-17T08:41:52;51.40;;;17.00;;
3891;SDS011;1961;48.194;16.370;2023-08-17T08:44:18;50.77;;;16.57;;
3891;SDS011;1961;48.194;16.370;2023-08-17T08:46:45;54.80;;;18.00;;
3891;SDS011;1961;48.194;16.370;2023-08-17T08:49:11;58.90;;;19.50;;
3891;SDS011;1961;48.194;16.370;2023-08-17T08:51:43;54.57;;;18.43;;
3891;SDS011;1961;48.194;16.370;2023-08-17T08:54:13;57.53;;;18.93;;
3891;SDS011;1961;48.194;16.370;2023-08-17T08:56:41;58.60;;;20.47;;
3891;SDS011;1961;48.194;16.370;2023-08-17T08:59:08;56.30;;;20.20;;
3891;SDS011;1961;48.194;16.370;2023-08-17T09:01:35;58.50;;;20.83;;
3891;SDS011;1961;48.194;16.370;2023-08-17T09:04:01;53.73;;;19.00;;
3891;SDS011;1961;48.194;16.370;2023-08-17T09:06:31;57.57;;;20.40;;
3891;SDS011;1961;48.194;16.370;2023-08-17T09:08:58;59.53;;;20.97;;
3891;SDS011;1961;48.194;16.370;2023-08-17T09:11:26;57.67;;;20.60;;
3891;SDS011;1961;48.194;16.370;2023-08-17T09:13:52;58.77;;;20.43;;
3891;SDS011;1961;48.194;16.370;2023-08-17T09:16:19;56.50;;;20.40;;
3891;SDS011;1961;48.194;16.370;2023-08-17T09:18:46;59.10;;;22.50;;
3891;SDS011;1961;48.194;16.370;2023-08-17T09:21:22;57.37;;;20.50;;
3891;SDS011;1961;48.194;16.370;2023-08-17T09:23:52;58.47;;;22.10;;
3891;SDS011;1961;48.194;16.370;2023-08-17T09:26:19;57.10;;;20.80;;
3891;SDS011;1961;48.194;16.370;2023-08-17T09:28:48;60.87;;;22.80;;
3891;SDS011;1961;48.194;16.370;2023-08-17T09:31:14;62.30;;;21.20;;
3891;SDS011;1961;48.194;16.370;2023-08-17T09:33:40;56.17;;;21.40;;
3891;SDS011;1961;48.194;16.370;2023-08-17T09:36:06;57.53;;;19.83;;
3891;SDS011;1961;48.194;16.370;2023-08-17T09:38:36;55.30;;;20.70;;
3891;SDS011;1961;48.194;16.370;2023-08-17T09:41:03;53.73;;;20.40;;
3891;SDS011;1961;48.194;16.370;2023-08-17T09:43:31;56.63;;;19.20;;
3891;SDS011;1961;48.194;16.370;2023-08-17T09:45:59;54.57;;;19.23;;
3891;SDS011;1961;48.194;16.370;2023-08-17T09:48:27;54.90;;;21.17;;
3891;SDS011;1961;48.194;16.370;2023-08-17T09:50:53;55.60;;;19.60;;
3891;SDS011;1961;48.194;16.370;2023-08-17T09:53:24;54.83;;;20.20;;
3891;SDS011;1961;48.194;16.370;2023-08-17T09:55:50;59.77;;;21.40;;
3891;SDS011;1961;48.194;16.370;2023-08-17T09:58:17;57.70;;;21.80;;
3891;SDS011;1961;48.194;16.370;2023-08-17T10:00:43;53.50;;;20.60;;
3891;SDS011;1961;48.194;16.370;2023-08-17T10:03:11;55.47;;;19.57;;
3891;SDS011;1961;48.194;16.370;2023-08-17T10:05:38;56.10;;;19.87;;
3891;SDS011;1961;48.194;16.370;2023-08-17T10:08:04;53.77;;;19.10;;
3891;SDS011;1961;48.194;16.370;2023-08-17T10:10:34;53.20;;;19.37;;
3891;SDS011;1961;48.194;16.370;2023-08-17T10:15:35;53.57;;;18.63;;
3891;SDS011;1961;48.194;16.370;2023-08-17T10:20:54;52.20;;;17.60;;
3891;SDS011;1961;48.194;16.370;2023-08-17T10:23:22;52.13;;;17.73;;
3891;SDS011;1961;48.194;16.370;2023-08-17T10:25:49;50.93;;;16.40;;
3891;SDS011;1961;48.194;16.370;2023-08-17T10:28:16;49.60;;;13.40;;
3891;SDS011;1961;48.194;16.370;2023-08-17T10:30:43;51.83;;;14.50;;
3891;SDS011;1961;48.194;16.370;2023-08-17T10:33:09;50.20;;;14.83;;
3891;SDS011;1961;48.194;16.370;2023-08-17T10:35:37;48.47;;;14.37;;
3891;SDS011;1961;48.194;16.370;2023-08-17T10:38:04;48.67;;;15.33;;
3891;SDS011;1961;48.194;16.370;2023-08-17T10:40:37;51.50;;;17.20;;
3891;SDS011;1961;48.194;16.370;2023-08-17T10:43:05;51.83;;;13.40;;
3891;SDS011;1961;48.194;16.370;2023-08-17T10:45:32;48.40;;;12.77;;
3891;SDS011;1961;48.194;16.370;2023-08-17T10:50:26;46.77;;;12.20;;
3891;SDS011;1961;48.194;16.370;2023-08-17T10:52:53;47.57;;;12.57;;
3891;SDS011;1961;48.194;16.370;2023-08-17T10:55:38;49.47;;;12.77;;
3891;SDS011;1961;48.194;16.370;2023-08-17T10:58:07;48.27;;;12.40;;
3891;SDS011;1961;48.194;16.370;2023-08-17T11:00:37;48.37;;;12.60;;
3891;SDS011;1961;48.194;16.370;2023-08-17T11:03:08;49.00;;;12.97;;
3891;SDS011;1961;48.194;16.370;2023-08-17T11:05:58;49.87;;;12.13;;
3891;SDS011;1961;48.194;16.370;2023-08-17T11:08:33;46.03;;;12.13;;
3891;SDS011;1961;48.194;16.370;2023-08-17T11:11:04;46.17;;;11.87;;
3891;SDS011;1961;48.194;16.370;2023-08-17T11:13:34;49.67;;;13.13;;
3891;SDS011;1961;48.194;16.370;2023-08-17T11:16:01;46.77;;;11.73;;
3891;SDS011;1961;48.194;16.370;2023-08-17T11:18:28;46.40;;;11.30;;
3891;SDS011;1961;48.194;16.370;2023-08-17T11:20:54;49.47;;;11.80;;
3891;SDS011;1961;48.194;16.370;2023-08-17T11:23:22;49.17;;;11.87;;
3891;SDS011;1961;48.194;16.370;2023-08-17T11:25:49;47.13;;;11.47;;
3891;SDS011;1961;48.194;16.370;2023-08-17T11:28:16;46.07;;;11.70;;
3891;SDS011;1961;48.194;16.370;2023-08-17T11:30:43;45.47;;;11.40;;
3891;SDS011;1961;48.194;16.370;2023-08-17T11:33:09;47.57;;;10.80;;
3891;SDS011;1961;48.194;16.370;2023-08-17T11:35:37;49.40;;;11.37;;
3891;SDS011;1961;48.194;16.370;2023-08-17T11:38:04;45.97;;;10.50;;
3891;SDS011;1961;48.194;16.370;2023-08-17T11:40:31;47.60;;;11.60;;
3891;SDS011;1961;48.194;16.370;2023-08-17T11:42:57;45.90;;;10.37;;
3891;SDS011;1961;48.194;16.370;2023-08-17T11:45:24;44.63;;;9.50;;
3891;SDS011;1961;48.194;16.370;2023-08-17T11:47:50;45.70;;;10.20;;
3891;SDS011;1961;48.194;16.370;2023-08-17T11:50:16;46.10;;;9.50;;
3891;SDS011;1961;48.194;16.370;2023-08-17T11:52:43;48.10;;;9.27;;
3891;SDS011;1961;48.194;16.370;2023-08-17T11:55:10;44.20;;;8.97;;
3891;SDS011;1961;48.194;16.370;2023-08-17T11:57:36;47.07;;;9.10;;
3891;SDS011;1961;48.194;16.370;2023-08-17T12:00:05;47.40;;;10.30;;
3891;SDS011;1961;48.194;16.370;2023-08-17T12:02:31;46.87;;;9.27;;
3891;SDS011;1961;48.194;16.370;2023-08-17T12:05:03;44.57;;;9.00;;
3891;SDS011;1961;48.194;16.370;2023-08-17T12:07:33;44.80;;;10.20;;
3891;SDS011;1961;48.194;16.370;2023-08-17T12:09:59;47.03;;;10.77;;
3891;SDS011;1961;48.194;16.370;2023-08-17T12:12:26;48.00;;;10.73;;
3891;SDS011;1961;48.194;16.370;2023-08-17T12:14:54;45.70;;;9.20;;
3891;SDS011;1961;48.194;16.370;2023-08-17T12:17:21;45.30;;;9.70;;
3891;SDS011;1961;48.194;16.370;2023-08-17T12:19:53;44.20;;;10.23;;
3891;SDS011;1961;48.194;16.370;2023-08-17T12:22:22;44.53;;;10.17;;
3891;SDS011;1961;48.194;16.370;2023-08-17T12:24:49;45.97;;;10.77;;
3891;SDS011;1961;48.194;16.370;2023-08-17T12:27:15;46.37;;;10.20;;
3891;SDS011;1961;48.194;16.370;2023-08-17T12:29:49;45.37;;;10.40;;
3891;SDS011;1961;48.194;16.370;2023-08-17T12:32:16;48.70;;;10.60;;
3891;SDS011;1961;48.194;16.370;2023-08-17T12:34:43;45.40;;;9.70;;
3891;SDS011;1961;48.194;16.370;2023-08-17T12:37:10;46.90;;;9.77;;
3891;SDS011;1961;48.194;16.370;2023-08-17T12:39:36;48.80;;;10.63;;
3891;SDS011;1961;48.194;16.370;2023-08-17T12:42:03;46.40;;;10.33;;
3891;SDS011;1961;48.194;16.370;2023-08-17T12:44:30;50.97;;;10.00;;
3891;SDS011;1961;48.194;16.370;2023-08-17T12:46:57;47.70;;;9.80;;
3891;SDS011;1961;48.194;16.370;2023-08-17T12:49:23;49.60;;;10.53;;
3891;SDS011;1961;48.194;16.370;2023-08-17T12:51:49;52.67;;;11.47;;
3891;SDS011;1961;48.194;16.370;2023-08-17T12:54:16;44.97;;;9.70;;
3891;SDS011;1961;48.194;16.370;2023-08-17T12:56:42;47.60;;;10.80;;
3891;SDS011;1961;48.194;16.370;2023-08-17T12:59:08;47.07;;;10.73;;
3891;SDS011;1961;48.194;16.370;2023-08-17T13:01:35;48.43;;;11.40;;
3891;SDS011;1961;48.194;16.370;2023-08-17T13:04:01;53.50;;;11.50;;
3891;SDS011;1961;48.194;16.370;2023-08-17T13:06:27;48.47;;;11.10;;
3891;SDS011;1961;48.194;16.370;2023-08-17T13:08:54;48.83;;;11.57;;
3891;SDS011;1961;48.194;16.370;2023-08-17T13:11:20;47.43;;;10.93;;
3891;SDS011;1961;48.194;16.370;2023-08-17T13:13:46;48.70;;;12.53;;
3891;SDS011;1961;48.194;16.370;2023-08-17T13:16:12;46.07;;;10.80;;
3891;SDS011;1961;48.194;16.370;2023-08-17T13:18:39;49.50;;;11.80;;
3891;SDS011;1961;48.194;16.370;2023-08-17T13:21:05;52.27;;;13.20;;
3891;SDS011;1961;48.194;16.370;2023-08-17T13:23:31;45.63;;;10.77;;
3891;SDS011;1961;48.194;16.370;2023-08-17T13:25:57;50.43;;;10.77;;
3891;SDS011;1961;48.194;16.370;2023-08-17T13:28:24;45.73;;;11.13;;
3891;SDS011;1961;48.194;16.370;2023-08-17T13:30:50;50.37;;;11.30;;
3891;SDS011;1961;48.194;16.370;2023-08-17T13:33:16;45.47;;;10.20;;
3891;SDS011;1961;48.194;16.370;2023-08-17T13:35:43;46.27;;;10.90;;
3891;SDS011;1961;48.194;16.370;2023-08-17T13:38:09;45.63;;;11.20;;
3891;SDS011;1961;48.194;16.370;2023-08-17T13:40:35;46.80;;;10.97;;
3891;SDS011;1961;48.194;16.370;2023-08-17T13:43:04;46.77;;;12.10;;
3891;SDS011;1961;48.194;16.370;2023-08-17T13:45:37;47.27;;;11.07;;
3891;SDS011;1961;48.194;16.370;2023-08-17T13:48:05;48.23;;;10.00;;
3891;SDS011;1961;48.194;16.370;2023-08-17T13:50:33;47.63;;;10.23;;
3891;SDS011;1961;48.194;16.370;2023-08-17T13:52:59;44.37;;;9.93;;
3891;SDS011;1961;48.194;16.370;2023-08-17T13:55:26;49.97;;;11.27;;
3891;SDS011;1961;48.194;16.370;2023-08-17T13:57:54;52.87;;;11.10;;
3891;SDS011;1961;48.194;16.370;2023-08-17T14:00:21;48.73;;;11.17;;
3891;SDS011;1961;48.194;16.370;2023-08-17T14:02:47;46.00;;;11.27;;
3891;SDS011;1961;48.194;16.370;2023-08-17T14:05:13;45.50;;;10.67;;
3891;SDS011;1961;48.194;16.370;2023-08-17T14:07:39;53.30;;;17.07;;
3891;SDS011;1961;48.194;16.370;2023-08-17T14:10:06;63.43;;;14.37;;
3891;SDS011;1961;48.194;16.370;2023-08-17T14:12:32;46.80;;;11.00;;
3891;SDS011;1961;48.194;16.370;2023-08-17T14:14:59;48.70;;;11.30;;
3891;SDS011;1961;48.194;16.370;2023-08-17T14:17:25;54.57;;;12.43;;
3891;SDS011;1961;48.194;16.370;2023-08-17T14:19:51;47.97;;;11.60;;
3891;SDS011;1961;48.194;16.370;2023-08-17T14:22:18;47.90;;;13.27;;
3891;SDS011;1961;48.194;16.370;2023-08-17T14:24:44;47.00;;;10.27;;
3891;SDS011;1961;48.194;16.370;2023-08-17T14:27:10;46.40;;;10.80;;
3891;SDS011;1961;48.194;16.370;2023-08-17T14:29:37;46.03;;;10.60;;
3891;SDS011;1961;48.194;16.370;2023-08-17T14:32:03;46.80;;;10.13;;
3891;SDS011;1961;48.194;16.370;2023-08-17T14:34:29;45.57;;;10.37;;
3891;SDS011;1961;48.194;16.370;2023-08-17T14:36:56;45.10;;;9.83;;
3891;SDS011;1961;48.194;16.370;2023-08-17T14:39:22;47.37;;;9.90;;
3891;SDS011;1961;48.194;16.370;2023-08-17T14:41:48;47.10;;;10.23;;
3891;SDS011;1961;48.194;16.370;2023-08-17T14:44:14;45.27;;;9.70;;